sensor_id;sensor_type;location;lat;lon;timestamp;pressure;altitude;pressure_sealevel;temperature;humidity
29371;BME280;16357;52.188;7.838;2023-01-24T00:00:32;103155.75;;;5.28;65.05
29371;BME280;16357;52.188;7.838;2023-01-24T00:02:58;103151.28;;;5.28;64.42
29371;BME280;16357;52.188;7.838;2023-01-24T00:05:25;103157.47;;;5.29;64.68
29371;BME280;16357;52.188;7.838;2023-01-24T00:07:51;103150.38;;;5.30;64.48
29371;BME280;16357;52.188;7.838;2023-01-24T00:10:17;103154.75;;;5.31;64.54
29371;BME280;16357;52.188;7.838;2023-01-24T00:12:44;103149.44;;;5.31;64.71
29371;BME280;16357;52.188;7.838;2023-01-24T00:15:10;103149.44;;;5.31;64.30
29371;BME280;16357;52.188;7.838;2023-01-24T00:17:37;103143.25;;;5.30;64.50
29371;BME280;16357;52.188;7.838;2023-01-24T00:20:04;103148.59;;;5.30;64.14
29371;BME280;16357;52.188;7.838;2023-01-24T00:22:32;103144.13;;;5.31;64.07
29371;BME280;16357;52.188;7.838;2023-01-24T00:24:58;103148.50;;;5.32;63.89
29371;BME280;16357;52.188;7.838;2023-01-24T00:27:24;103139.66;;;5.31;63.93
29371;BME280;16357;52.188;7.838;2023-01-24T00:29:51;103141.41;;;5.32;64.19
29371;BME280;16357;52.188;7.838;2023-01-24T00:32:17;103137.81;;;5.33;63.66
29371;BME280;16357;52.188;7.838;2023-01-24T00:34:43;103146.66;;;5.34;63.93
29371;BME280;16357;52.188;7.838;2023-01-24T00:37:10;103144.00;;;5.34;63.77
29371;BME280;16357;52.188;7.838;2023-01-24T00:39:36;103146.59;;;5.35;63.45
29371;BME280;16357;52.188;7.838;2023-01-24T00:42:02;103155.44;;;5.36;63.64
29371;BME280;16357;52.188;7.838;2023-01-24T00:44:29;103157.25;;;5.35;63.19
29371;BME280;16357;52.188;7.838;2023-01-24T00:46:55;103150.13;;;5.36;62.94
29371;BME280;16357;52.188;7.838;2023-01-24T00:49:22;103140.41;;;5.35;63.37
29371;BME280;16357;52.188;7.838;2023-01-24T00:51:48;103142.19;;;5.34;63.24
29371;BME280;16357;52.188;7.838;2023-01-24T00:54:15;103147.50;;;5.34;63.20
29371;BME280;16357;52.188;7.838;2023-01-24T00:56:41;103144.84;;;5.34;63.14
29371;BME280;16357;52.188;7.838;2023-01-24T00:59:07;103151.06;;;5.35;63.05
29371;BME280;16357;52.188;7.838;2023-01-24T01:01:34;103149.31;;;5.34;62.90
29371;BME280;16357;52.188;7.838;2023-01-24T01:04:00;103140.41;;;5.35;63.00
29371;BME280;16357;52.188;7.838;2023-01-24T01:06:27;103142.19;;;5.34;63.07
29371;BME280;16357;52.188;7.838;2023-01-24T01:08:53;103149.31;;;5.34;62.70
29371;BME280;16357;52.188;7.838;2023-01-24T01:11:20;103146.66;;;5.34;62.71
29371;BME280;16357;52.188;7.838;2023-01-24T01:13:46;103137.81;;;5.33;62.48
29371;BME280;16357;52.188;7.838;2023-01-24T01:16:17;103144.00;;;5.34;62.90
29371;BME280;16357;52.188;7.838;2023-01-24T01:18:46;103142.28;;;5.33;62.80
29371;BME280;16357;52.188;7.838;2023-01-24T01:21:15;103145.84;;;5.32;62.82
29371;BME280;16357;52.188;7.838;2023-01-24T01:23:42;103145.84;;;5.32;62.46
29371;BME280;16357;52.188;7.838;2023-01-24T01:26:14;103140.50;;;5.32;62.63
29371;BME280;16357;52.188;7.838;2023-01-24T01:28:41;103135.19;;;5.32;62.50
29371;BME280;16357;52.188;7.838;2023-01-24T01:31:08;103133.47;;;5.31;62.74
29371;BME280;16357;52.188;7.838;2023-01-24T01:33:34;103129.00;;;5.31;62.07
29371;BME280;16357;52.188;7.838;2023-01-24T01:36:01;103119.22;;;5.32;62.38
29371;BME280;16357;52.188;7.838;2023-01-24T01:38:27;103123.63;;;5.33;62.30
29371;BME280;16357;52.188;7.838;2023-01-24T01:40:56;103118.31;;;5.33;62.29
29371;BME280;16357;52.188;7.838;2023-01-24T01:43:24;103122.69;;;5.34;62.36
29371;BME280;16357;52.188;7.838;2023-01-24T01:45:53;103126.22;;;5.34;62.34
29371;BME280;16357;52.188;7.838;2023-01-24T01:51:21;103123.50;;;5.36;62.22
29371;BME280;16357;52.188;7.838;2023-01-24T01:53:57;103117.25;;;5.37;62.37
29371;BME280;16357;52.188;7.838;2023-01-24T01:56:31;103111.91;;;5.37;62.23
29371;BME280;16357;52.188;7.838;2023-01-24T01:59:02;103122.56;;;5.37;62.02
29371;BME280;16357;52.188;7.838;2023-01-24T02:01:30;103117.25;;;5.37;61.92
29371;BME280;16357;52.188;7.838;2023-01-24T02:04:07;103112.84;;;5.36;62.18
29371;BME280;16357;52.188;7.838;2023-01-24T02:06:51;103109.34;;;5.35;61.83
29371;BME280;16357;52.188;7.838;2023-01-24T02:09:23;103112.06;;;5.34;61.62
29371;BME280;16357;52.188;7.838;2023-01-24T02:11:52;103110.34;;;5.33;61.86
29371;BME280;16357;52.188;7.838;2023-01-24T02:14:20;103110.38;;;5.31;61.60
29371;BME280;16357;52.188;7.838;2023-01-24T02:17:07;103115.84;;;5.28;62.14
29371;BME280;16357;52.188;7.838;2023-01-24T02:22:32;103122.97;;;5.27;62.09
29371;BME280;16357;52.188;7.838;2023-01-24T02:25:08;103123.81;;;5.28;62.34
29371;BME280;16357;52.188;7.838;2023-01-24T02:27:37;103127.34;;;5.28;62.32
29371;BME280;16357;52.188;7.838;2023-01-24T02:30:04;103124.69;;;5.28;62.35
29371;BME280;16357;52.188;7.838;2023-01-24T02:32:30;103122.97;;;5.27;61.97
29371;BME280;16357;52.188;7.838;2023-01-24T02:34:57;103126.47;;;5.28;61.68
29371;BME280;16357;52.188;7.838;2023-01-24T02:37:23;103121.22;;;5.26;61.53
29371;BME280;16357;52.188;7.838;2023-01-24T02:39:56;103119.50;;;5.25;61.59
29371;BME280;16357;52.188;7.838;2023-01-24T02:42:28;103116.09;;;5.22;61.99
29371;BME280;16357;52.188;7.838;2023-01-24T02:45:03;103114.34;;;5.21;61.99
29371;BME280;16357;52.188;7.838;2023-01-24T02:47:35;103109.09;;;5.19;62.30
29371;BME280;16357;52.188;7.838;2023-01-24T02:50:04;103113.63;;;5.17;62.04
29371;BME280;16357;52.188;7.838;2023-01-24T02:52:31;103110.97;;;5.17;62.15
29371;BME280;16357;52.188;7.838;2023-01-24T02:55:16;103114.44;;;5.19;62.16
29371;BME280;16357;52.188;7.838;2023-01-24T02:57:43;103118.75;;;5.22;62.47
29371;BME280;16357;52.188;7.838;2023-01-24T03:00:28;103120.44;;;5.24;61.67
29371;BME280;16357;52.188;7.838;2023-01-24T03:02:54;103107.13;;;5.24;62.03
29371;BME280;16357;52.188;7.838;2023-01-24T03:05:21;103110.66;;;5.25;61.78
29371;BME280;16357;52.188;7.838;2023-01-24T03:07:47;103108.94;;;5.24;61.92
29371;BME280;16357;52.188;7.838;2023-01-24T03:10:15;103110.69;;;5.23;61.67
29371;BME280;16357;52.188;7.838;2023-01-24T03:12:43;103108.03;;;5.23;62.09
29371;BME280;16357;52.188;7.838;2023-01-24T03:15:28;103097.38;;;5.23;61.51
29371;BME280;16357;52.188;7.838;2023-01-24T03:18:13;103096.63;;;5.21;62.05
29371;BME280;16357;52.188;7.838;2023-01-24T03:20:58;103094.88;;;5.20;61.69
29371;BME280;16357;52.188;7.838;2023-01-24T03:23:43;103100.19;;;5.20;61.69
29371;BME280;16357;52.188;7.838;2023-01-24T03:26:28;103105.50;;;5.20;62.25
29371;BME280;16357;52.188;7.838;2023-01-24T03:29:13;103100.19;;;5.20;62.33
29371;BME280;16357;52.188;7.838;2023-01-24T03:31:58;103099.31;;;5.20;61.80
29371;BME280;16357;52.188;7.838;2023-01-24T03:34:43;103104.59;;;5.21;61.70
29371;BME280;16357;52.188;7.838;2023-01-24T03:37:18;103104.50;;;5.23;62.11
29371;BME280;16357;52.188;7.838;2023-01-24T03:40:11;103110.56;;;5.26;62.19
29371;BME280;16357;52.188;7.838;2023-01-24T03:42:38;103099.00;;;5.27;61.80
29371;BME280;16357;52.188;7.838;2023-01-24T03:45:17;103113.13;;;5.30;61.74
29371;BME280;16357;52.188;7.838;2023-01-24T03:47:47;103103.25;;;5.32;61.65
29371;BME280;16357;52.188;7.838;2023-01-24T03:50:36;103112.06;;;5.34;61.71
29371;BME280;16357;52.188;7.838;2023-01-24T03:53:23;103114.66;;;5.35;61.64
29371;BME280;16357;52.188;7.838;2023-01-24T03:55:56;103111.13;;;5.35;61.75
29371;BME280;16357;52.188;7.838;2023-01-24T03:58:24;103112.91;;;5.34;61.38
29371;BME280;16357;52.188;7.838;2023-01-24T04:00:52;103113.91;;;5.32;61.31
29371;BME280;16357;52.188;7.838;2023-01-24T04:03:19;103112.19;;;5.31;61.26
29371;BME280;16357;52.188;7.838;2023-01-24T04:05:49;103116.66;;;5.30;61.09
29371;BME280;16357;52.188;7.838;2023-01-24T04:08:16;103108.72;;;5.28;61.14
29371;BME280;16357;52.188;7.838;2023-01-24T04:10:43;103113.22;;;5.26;61.30
29371;BME280;16357;52.188;7.838;2023-01-24T04:13:10;103121.22;;;5.26;61.16
29371;BME280;16357;52.188;7.838;2023-01-24T04:15:37;103121.22;;;5.26;61.37
29371;BME280;16357;52.188;7.838;2023-01-24T04:18:05;103115.88;;;5.26;61.25
29371;BME280;16357;52.188;7.838;2023-01-24T04:20:34;103116.78;;;5.27;61.13
29371;BME280;16357;52.188;7.838;2023-01-24T04:23:05;103105.25;;;5.26;61.26
29371;BME280;16357;52.188;7.838;2023-01-24T04:25:32;103113.22;;;5.26;60.99
29371;BME280;16357;52.188;7.838;2023-01-24T04:27:58;103103.59;;;5.24;61.19
29371;BME280;16357;52.188;7.838;2023-01-24T04:30:25;103113.34;;;5.23;60.90
29371;BME280;16357;52.188;7.838;2023-01-24T04:32:51;103108.13;;;5.22;60.79
29371;BME280;16357;52.188;7.838;2023-01-24T04:35:23;103106.38;;;5.21;61.09
29371;BME280;16357;52.188;7.838;2023-01-24T04:37:51;103099.38;;;5.18;60.96
29371;BME280;16357;52.188;7.838;2023-01-24T04:40:17;103098.59;;;5.16;61.09
29371;BME280;16357;52.188;7.838;2023-01-24T04:42:44;103091.53;;;5.15;61.29
29371;BME280;16357;52.188;7.838;2023-01-24T04:45:10;103102.16;;;5.15;60.91
29371;BME280;16357;52.188;7.838;2023-01-24T04:47:37;103109.28;;;5.15;61.02
29371;BME280;16357;52.188;7.838;2023-01-24T04:50:04;103098.66;;;5.15;60.55
29371;BME280;16357;52.188;7.838;2023-01-24T04:52:31;103101.34;;;5.13;60.59
29371;BME280;16357;52.188;7.838;2023-01-24T04:54:58;103111.22;;;5.11;60.63
29371;BME280;16357;52.188;7.838;2023-01-24T04:57:24;103107.75;;;5.09;60.39
29371;BME280;16357;52.188;7.838;2023-01-24T04:59:50;103113.97;;;5.08;60.77
29371;BME280;16357;52.188;7.838;2023-01-24T05:02:17;103110.53;;;5.06;60.22
29371;BME280;16357;52.188;7.838;2023-01-24T05:04:43;103110.59;;;5.04;60.47
29371;BME280;16357;52.188;7.838;2023-01-24T05:07:10;103110.66;;;5.03;60.65
29371;BME280;16357;52.188;7.838;2023-01-24T05:09:37;103105.41;;;5.01;60.68
29371;BME280;16357;52.188;7.838;2023-01-24T05:12:03;103104.53;;;5.01;60.73
29371;BME280;16357;52.188;7.838;2023-01-24T05:14:30;103110.72;;;5.01;60.77
29371;BME280;16357;52.188;7.838;2023-01-24T05:16:56;103122.22;;;5.02;60.73
29371;BME280;16357;52.188;7.838;2023-01-24T05:19:23;103116.84;;;5.03;60.85
29371;BME280;16357;52.188;7.838;2023-01-24T05:21:49;103120.38;;;5.04;60.31
29371;BME280;16357;52.188;7.838;2023-01-24T05:24:15;103111.44;;;5.05;60.40
29371;BME280;16357;52.188;7.838;2023-01-24T05:26:44;103118.53;;;5.06;60.46
29371;BME280;16357;52.188;7.838;2023-01-24T05:29:11;103110.59;;;5.04;60.33
29371;BME280;16357;52.188;7.838;2023-01-24T05:31:37;103113.25;;;5.04;60.53
29371;BME280;16357;52.188;7.838;2023-01-24T05:34:03;103126.56;;;5.04;60.56
29371;BME280;16357;52.188;7.838;2023-01-24T05:36:31;103123.03;;;5.04;60.48
29371;BME280;16357;52.188;7.838;2023-01-24T05:38:57;103126.56;;;5.04;60.29
29371;BME280;16357;52.188;7.838;2023-01-24T05:41:24;103123.88;;;5.04;60.38
29371;BME280;16357;52.188;7.838;2023-01-24T05:43:50;103123.03;;;5.04;59.98
29371;BME280;16357;52.188;7.838;2023-01-24T05:46:19;103135.47;;;5.03;60.25
29371;BME280;16357;52.188;7.838;2023-01-24T05:48:47;103134.59;;;5.03;60.35
29371;BME280;16357;52.188;7.838;2023-01-24T05:51:16;103142.59;;;5.03;60.41
29371;BME280;16357;52.188;7.838;2023-01-24T05:53:43;103140.84;;;5.02;60.50
29371;BME280;16357;52.188;7.838;2023-01-24T05:56:13;103139.94;;;5.03;60.50
29371;BME280;16357;52.188;7.838;2023-01-24T05:58:41;103141.66;;;5.04;60.54
29371;BME280;16357;52.188;7.838;2023-01-24T06:01:09;103141.66;;;5.04;60.05
29371;BME280;16357;52.188;7.838;2023-01-24T06:03:37;103144.31;;;5.04;60.32
29371;BME280;16357;52.188;7.838;2023-01-24T06:06:04;103140.78;;;5.03;60.02
29371;BME280;16357;52.188;7.838;2023-01-24T06:08:31;103139.94;;;5.03;59.97
29371;BME280;16357;52.188;7.838;2023-01-24T06:11:03;103147.09;;;5.01;60.00
29371;BME280;16357;52.188;7.838;2023-01-24T06:13:29;103147.16;;;4.99;59.89
29371;BME280;16357;52.188;7.838;2023-01-24T06:16:07;103152.53;;;4.98;60.33
29371;BME280;16357;52.188;7.838;2023-01-24T06:18:35;103151.72;;;4.96;60.21
29371;BME280;16357;52.188;7.838;2023-01-24T06:21:45;103154.44;;;4.94;60.35
29371;BME280;16357;52.188;7.838;2023-01-24T06:24:17;103153.56;;;4.94;60.14
29371;BME280;16357;52.188;7.838;2023-01-24T06:26:44;103158.94;;;4.92;60.05
29371;BME280;16357;52.188;7.838;2023-01-24T06:29:11;103148.44;;;4.89;59.79
29371;BME280;16357;52.188;7.838;2023-01-24T06:31:53;103155.56;;;4.89;60.28
29371;BME280;16357;52.188;7.838;2023-01-24T06:34:32;103151.16;;;4.88;60.14
29371;BME280;16357;52.188;7.838;2023-01-24T06:37:21;103157.34;;;4.88;60.41
29371;BME280;16357;52.188;7.838;2023-01-24T06:39:52;103155.56;;;4.89;60.40
29371;BME280;16357;52.188;7.838;2023-01-24T06:42:20;103156.38;;;4.91;60.33
29371;BME280;16357;52.188;7.838;2023-01-24T06:44:48;103151.03;;;4.91;60.27
29371;BME280;16357;52.188;7.838;2023-01-24T06:47:14;103157.22;;;4.91;60.25
29371;BME280;16357;52.188;7.838;2023-01-24T06:49:42;103164.25;;;4.92;60.38
29371;BME280;16357;52.188;7.838;2023-01-24T06:52:09;103170.47;;;4.93;60.15
29371;BME280;16357;52.188;7.838;2023-01-24T06:54:35;103167.81;;;4.93;60.40
29371;BME280;16357;52.188;7.838;2023-01-24T06:57:02;103160.69;;;4.93;59.92
29371;BME280;16357;52.188;7.838;2023-01-24T06:59:29;103163.28;;;4.95;59.96
29371;BME280;16357;52.188;7.838;2023-01-24T07:01:56;103161.56;;;4.94;60.12
29371;BME280;16357;52.188;7.838;2023-01-24T07:04:22;103171.34;;;4.93;60.21
29371;BME280;16357;52.188;7.838;2023-01-24T07:06:48;103170.47;;;4.93;59.93
29371;BME280;16357;52.188;7.838;2023-01-24T07:09:22;103173.06;;;4.94;60.23
29371;BME280;16357;52.188;7.838;2023-01-24T07:11:49;103174.91;;;4.92;60.20
29371;BME280;16357;52.188;7.838;2023-01-24T07:14:19;103175.78;;;4.93;60.23
29371;BME280;16357;52.188;7.838;2023-01-24T07:16:45;103183.78;;;4.93;60.29
29371;BME280;16357;52.188;7.838;2023-01-24T07:19:17;103180.19;;;4.94;60.21
29371;BME280;16357;52.188;7.838;2023-01-24T07:21:45;103184.63;;;4.93;59.87
29371;BME280;16357;52.188;7.838;2023-01-24T07:24:18;103179.31;;;4.93;59.95
29371;BME280;16357;52.188;7.838;2023-01-24T07:26:46;103192.63;;;4.93;59.92
29371;BME280;16357;52.188;7.838;2023-01-24T07:29:14;103188.28;;;4.91;59.95
29371;BME280;16357;52.188;7.838;2023-01-24T07:31:40;103195.41;;;4.90;60.24
29371;BME280;16357;52.188;7.838;2023-01-24T07:34:07;103197.16;;;4.90;60.19
29371;BME280;16357;52.188;7.838;2023-01-24T07:36:33;103200.63;;;4.92;60.06
29371;BME280;16357;52.188;7.838;2023-01-24T07:39:00;103197.97;;;4.92;60.05
29371;BME280;16357;52.188;7.838;2023-01-24T07:41:26;103197.16;;;4.90;59.68
29371;BME280;16357;52.188;7.838;2023-01-24T07:43:53;103198.06;;;4.90;59.65
29371;BME280;16357;52.188;7.838;2023-01-24T07:46:21;103206.09;;;4.89;59.97
29371;BME280;16357;52.188;7.838;2023-01-24T07:48:47;103197.28;;;4.87;59.62
29371;BME280;16357;52.188;7.838;2023-01-24T07:51:14;103200.88;;;4.86;60.10
29371;BME280;16357;52.188;7.838;2023-01-24T07:53:40;103208.03;;;4.83;59.74
29371;BME280;16357;52.188;7.838;2023-01-24T07:56:06;103208.03;;;4.83;59.87
29371;BME280;16357;52.188;7.838;2023-01-24T07:58:40;103206.31;;;4.82;59.77
29371;BME280;16357;52.188;7.838;2023-01-24T08:01:06;103208.97;;;4.82;60.08
29371;BME280;16357;52.188;7.838;2023-01-24T08:03:33;103214.22;;;4.84;60.57
29371;BME280;16357;52.188;7.838;2023-01-24T08:06:00;103209.81;;;4.84;60.33
29371;BME280;16357;52.188;7.838;2023-01-24T08:08:26;103214.13;;;4.87;60.32
29371;BME280;16357;52.188;7.838;2023-01-24T08:10:52;103215.00;;;4.88;60.00
29371;BME280;16357;52.188;7.838;2023-01-24T08:13:19;103219.38;;;4.89;60.06
29371;BME280;16357;52.188;7.838;2023-01-24T08:15:45;103223.75;;;4.90;59.97
29371;BME280;16357;52.188;7.838;2023-01-24T08:18:11;103224.78;;;4.87;60.20
29371;BME280;16357;52.188;7.838;2023-01-24T08:20:38;103230.97;;;4.88;59.82
29371;BME280;16357;52.188;7.838;2023-01-24T08:23:04;103224.78;;;4.87;59.88
29371;BME280;16357;52.188;7.838;2023-01-24T08:25:31;103221.22;;;4.87;59.81
29371;BME280;16357;52.188;7.838;2023-01-24T08:27:58;103218.56;;;4.87;59.79
29371;BME280;16357;52.188;7.838;2023-01-24T08:30:24;103226.53;;;4.87;59.74
29371;BME280;16357;52.188;7.838;2023-01-24T08:33:02;103228.34;;;4.86;59.89
29371;BME280;16357;52.188;7.838;2023-01-24T08:35:29;103229.19;;;4.87;59.72
29371;BME280;16357;52.188;7.838;2023-01-24T08:37:56;103223.88;;;4.87;59.86
29371;BME280;16357;52.188;7.838;2023-01-24T08:40:35;103222.13;;;4.87;59.90
29371;BME280;16357;52.188;7.838;2023-01-24T08:43:13;103230.84;;;4.91;60.03
29371;BME280;16357;52.188;7.838;2023-01-24T08:45:40;103233.50;;;4.91;60.09
29371;BME280;16357;52.188;7.838;2023-01-24T08:48:06;103232.56;;;4.92;59.58
29371;BME280;16357;52.188;7.838;2023-01-24T08:50:32;103234.31;;;4.93;59.96
29371;BME280;16357;52.188;7.838;2023-01-24T08:52:59;103237.00;;;4.91;59.47
29371;BME280;16357;52.188;7.838;2023-01-24T08:55:25;103236.16;;;4.91;59.33
29371;BME280;16357;52.188;7.838;2023-01-24T08:57:52;103235.34;;;4.89;59.51
29371;BME280;16357;52.188;7.838;2023-01-24T09:00:18;103238.84;;;4.89;59.50
29371;BME280;16357;52.188;7.838;2023-01-24T09:02:45;103251.28;;;4.89;59.56
29371;BME280;16357;52.188;7.838;2023-01-24T09:05:11;103251.28;;;4.89;59.67
29371;BME280;16357;52.188;7.838;2023-01-24T09:07:37;103255.69;;;4.90;59.75
29371;BME280;16357;52.188;7.838;2023-01-24T09:10:08;103252.13;;;4.91;59.93
29371;BME280;16357;52.188;7.838;2023-01-24T09:12:34;103253.84;;;4.92;59.90
29371;BME280;16357;52.188;7.838;2023-01-24T09:15:01;103252.00;;;4.94;59.80
29371;BME280;16357;52.188;7.838;2023-01-24T09:17:27;103254.59;;;4.95;59.78
29371;BME280;16357;52.188;7.838;2023-01-24T09:19:54;103258.88;;;4.99;60.05
29371;BME280;16357;52.188;7.838;2023-01-24T09:22:20;103263.22;;;5.02;59.83
29371;BME280;16357;52.188;7.838;2023-01-24T09:24:49;103254.25;;;5.04;59.52
29371;BME280;16357;52.188;7.838;2023-01-24T09:27:16;103265.69;;;5.06;59.50
29371;BME280;16357;52.188;7.838;2023-01-24T09:29:42;103257.63;;;5.08;59.70
29371;BME280;16357;52.188;7.838;2023-01-24T09:32:08;103262.91;;;5.10;59.95
29371;BME280;16357;52.188;7.838;2023-01-24T09:34:35;103266.41;;;5.12;60.00
29371;BME280;16357;52.188;7.838;2023-01-24T09:37:01;103267.13;;;5.15;60.17
29371;BME280;16357;52.188;7.838;2023-01-24T09:39:28;103266.16;;;5.18;59.63
29371;BME280;16357;52.188;7.838;2023-01-24T09:42:03;103273.09;;;5.22;59.69
29371;BME280;16357;52.188;7.838;2023-01-24T09:44:51;103270.38;;;5.23;59.65
29371;BME280;16357;52.188;7.838;2023-01-24T09:47:23;103275.56;;;5.26;59.67
29371;BME280;16357;52.188;7.838;2023-01-24T09:49:55;103277.31;;;5.27;59.55
29371;BME280;16357;52.188;7.838;2023-01-24T09:52:39;103276.47;;;5.27;59.08
29371;BME280;16357;52.188;7.838;2023-01-24T09:55:22;103264.88;;;5.28;59.62
29371;BME280;16357;52.188;7.838;2023-01-24T10:00:29;103265.72;;;5.28;59.55
29371;BME280;16357;52.188;7.838;2023-01-24T10:02:59;103261.22;;;5.31;59.38
29371;BME280;16357;52.188;7.838;2023-01-24T10:05:35;103263.84;;;5.32;59.25
29371;BME280;16357;52.188;7.838;2023-01-24T10:08:12;103263.75;;;5.34;59.46
29371;BME280;16357;52.188;7.838;2023-01-24T10:10:45;103261.78;;;5.39;59.71
29371;BME280;16357;52.188;7.838;2023-01-24T10:13:40;103259.84;;;5.42;59.19
29371;BME280;16357;52.188;7.838;2023-01-24T10:19:18;103265.81;;;5.49;58.85
29371;BME280;16357;52.188;7.838;2023-01-24T10:24:52;103268.44;;;5.50;59.10
29371;BME280;16357;52.188;7.838;2023-01-24T10:27:26;103264.84;;;5.52;59.10
29371;BME280;16357;52.188;7.838;2023-01-24T10:29:58;103266.50;;;5.54;58.63
29371;BME280;16357;52.188;7.838;2023-01-24T10:32:32;103262.84;;;5.57;58.91
29371;BME280;16357;52.188;7.838;2023-01-24T10:35:11;103254.81;;;5.58;58.99
29371;BME280;16357;52.188;7.838;2023-01-24T10:37:42;103251.22;;;5.59;58.46
29371;BME280;16357;52.188;7.838;2023-01-24T10:40:18;103257.41;;;5.60;58.69
29371;BME280;16357;52.188;7.838;2023-01-24T10:42:45;103255.59;;;5.60;58.41
29371;BME280;16357;52.188;7.838;2023-01-24T10:48:06;103247.47;;;5.63;58.72
29371;BME280;16357;52.188;7.838;2023-01-24T10:50:41;103250.03;;;5.66;58.74
29371;BME280;16357;52.188;7.838;2023-01-24T10:53:23;103248.16;;;5.68;58.76
29371;BME280;16357;52.188;7.838;2023-01-24T10:56:01;103247.16;;;5.71;58.40
29371;BME280;16357;52.188;7.838;2023-01-24T11:01:32;103237.28;;;5.75;58.44
29371;BME280;16357;52.188;7.838;2023-01-24T11:04:13;103233.63;;;5.77;58.59
29371;BME280;16357;52.188;7.838;2023-01-24T11:06:45;103231.69;;;5.81;58.98
29371;BME280;16357;52.188;7.838;2023-01-24T11:09:14;103229.84;;;5.83;58.51
29371;BME280;16357;52.188;7.838;2023-01-24T11:11:44;103236.69;;;5.88;58.62
29371;BME280;16357;52.188;7.838;2023-01-24T11:14:26;103232.09;;;5.92;58.38
29371;BME280;16357;52.188;7.838;2023-01-24T11:16:55;103231.19;;;5.93;58.10
29371;BME280;16357;52.188;7.838;2023-01-24T11:19:29;103227.59;;;5.94;57.92
29371;BME280;16357;52.188;7.838;2023-01-24T11:21:59;103221.53;;;5.90;57.72
29371;BME280;16357;52.188;7.838;2023-01-24T11:24:26;103223.38;;;5.88;57.89
29371;BME280;16357;52.188;7.838;2023-01-24T11:27:13;103219.84;;;5.88;57.84
29371;BME280;16357;52.188;7.838;2023-01-24T11:29:39;103222.44;;;5.89;58.40
29371;BME280;16357;52.188;7.838;2023-01-24T11:35:02;103219.84;;;5.88;58.14
29371;BME280;16357;52.188;7.838;2023-01-24T11:37:55;103213.72;;;5.86;58.16
29371;BME280;16357;52.188;7.838;2023-01-24T11:43:43;103203.00;;;5.87;58.21
29371;BME280;16357;52.188;7.838;2023-01-24T11:46:18;103202.00;;;5.90;58.00
29371;BME280;16357;52.188;7.838;2023-01-24T11:49:03;103200.09;;;5.93;57.84
29371;BME280;16357;52.188;7.838;2023-01-24T11:54:57;103196.56;;;5.93;58.05
29371;BME280;16357;52.188;7.838;2023-01-24T12:00:54;103188.69;;;5.90;57.56
29371;BME280;16357;52.188;7.838;2023-01-24T12:06:48;103188.75;;;5.88;57.96
29371;BME280;16357;52.188;7.838;2023-01-24T12:09:20;103177.09;;;5.91;58.33
29371;BME280;16357;52.188;7.838;2023-01-24T12:14:41;103181.31;;;5.97;58.23
29371;BME280;16357;52.188;7.838;2023-01-24T12:23:48;103180.84;;;6.07;57.72
29371;BME280;16357;52.188;7.838;2023-01-24T12:28:55;103179.03;;;6.08;57.53
29371;BME280;16357;52.188;7.838;2023-01-24T12:31:39;103170.19;;;6.07;58.08
29371;BME280;16357;52.188;7.838;2023-01-24T12:37:02;103172.84;;;6.07;57.75
29371;BME280;16357;52.188;7.838;2023-01-24T12:39:38;103164.94;;;6.06;57.57
29371;BME280;16357;52.188;7.838;2023-01-24T12:42:19;103163.19;;;6.05;57.17
29371;BME280;16357;52.188;7.838;2023-01-24T12:44:58;103166.81;;;6.04;57.24
29371;BME280;16357;52.188;7.838;2023-01-24T12:47:37;103167.81;;;6.01;57.08
29371;BME280;16357;52.188;7.838;2023-01-24T12:50:22;103165.28;;;5.98;57.42
29371;BME280;16357;52.188;7.838;2023-01-24T12:52:56;103152.09;;;5.95;56.75
29371;BME280;16357;52.188;7.838;2023-01-24T12:55:28;103153.94;;;5.93;56.89
29371;BME280;16357;52.188;7.838;2023-01-24T12:58:10;103150.44;;;5.91;57.41
29371;BME280;16357;52.188;7.838;2023-01-24T13:03:28;103149.72;;;5.87;57.13
29371;BME280;16357;52.188;7.838;2023-01-24T13:06:09;103145.25;;;5.88;57.29
29371;BME280;16357;52.188;7.838;2023-01-24T13:08:48;103136.31;;;5.89;57.77
29371;BME280;16357;52.188;7.838;2023-01-24T13:11:22;103135.28;;;5.93;57.51
29371;BME280;16357;52.188;7.838;2023-01-24T13:13:58;103136.13;;;5.95;57.36
29371;BME280;16357;52.188;7.838;2023-01-24T13:16:36;103132.41;;;5.98;57.32
29371;BME280;16357;52.188;7.838;2023-01-24T13:19:22;103132.16;;;6.04;57.56
29371;BME280;16357;52.188;7.838;2023-01-24T13:33:05;103146.81;;;6.14;56.80
29371;BME280;16357;52.188;7.838;2023-01-24T13:35:34;103138.88;;;6.12;56.60
29371;BME280;16357;52.188;7.838;2023-01-24T13:38:04;103137.97;;;6.13;57.07
29371;BME280;16357;52.188;7.838;2023-01-24T13:40:32;103137.97;;;6.13;57.15
29371;BME280;16357;52.188;7.838;2023-01-24T13:43:03;103135.31;;;6.13;56.77
29371;BME280;16357;52.188;7.838;2023-01-24T13:47:59;103142.34;;;6.14;56.69
29371;BME280;16357;52.188;7.838;2023-01-24T13:50:29;103144.94;;;6.16;57.02
29371;BME280;16357;52.188;7.838;2023-01-24T13:52:58;103145.88;;;6.15;56.76
29371;BME280;16357;52.188;7.838;2023-01-24T14:00:31;103148.63;;;6.13;56.32
29371;BME280;16357;52.188;7.838;2023-01-24T14:03:02;103147.69;;;6.14;56.56
29371;BME280;16357;52.188;7.838;2023-01-24T14:07:58;103145.00;;;6.14;56.81
29371;BME280;16357;52.188;7.838;2023-01-24T14:18:55;103137.16;;;6.11;56.51
29371;BME280;16357;52.188;7.838;2023-01-24T14:21:27;103144.28;;;6.11;56.16
29371;BME280;16357;52.188;7.838;2023-01-24T14:24:00;103144.34;;;6.09;56.57
29371;BME280;16357;52.188;7.838;2023-01-24T14:26:31;103142.63;;;6.08;56.92
29371;BME280;16357;52.188;7.838;2023-01-24T14:29:03;103141.75;;;6.08;55.92
29371;BME280;16357;52.188;7.838;2023-01-24T14:31:40;103147.22;;;6.05;56.21
29371;BME280;16357;52.188;7.838;2023-01-24T14:37:17;103147.50;;;5.99;56.65
29371;BME280;16357;52.188;7.838;2023-01-24T14:39:43;103154.63;;;5.98;56.24
29371;BME280;16357;52.188;7.838;2023-01-24T14:42:15;103152.88;;;5.97;56.65
29371;BME280;16357;52.188;7.838;2023-01-24T14:44:55;103150.34;;;5.94;56.56